Anatone, WA

12:05 AM PDT on October 25, 2014 (GMT -0700)
Montgomery Ridge Road | Change Station
CLOSE
Current Station
Personal Weather Station
Location: Anatone, WA
Elevation: 3300 ft
Nearby Weather Stations
Active Advisory: Wind Advisory

Elev 3300 ft 46.12 °N, 117.01 °W | Updated 3 minutes ago

Partly Cloudy
Partly Cloudy
45.0 °F
Feels Like 42 °F
N
6.3
Wind Variable Wind from SE
Gusts 8.5 mph

Today
High -- | Low -- °F
--% Chance of Precip.
Yesterday
High -- | Low -- °F
Precip. -- in
7:19 AM 5:44 PM
New Moon, 2% visible
Pressure 29.90 in
Visibility 10.0 miles
Clouds Clear
Windchill 42 °F
Dew Point 43 °F
Humidity 91%
Rainfall 0.00 in
Snow Depth Not available.
UV 0 out of 12
Pollen .80 out of 12
Air Quality Not available.
Flu Activity Sporadic
METAR KLWS 250656Z AUTO 10004KT 10SM CLR 10/09 A2990 RMK AO2 SLP125 T01000089

More Conditions Fewer Conditions

Pressure 29.90 in
Visibility 10.0 miles
Clouds Clear
Windchill 42 °F
Dew Point 43 °F
Humidity 91%
Rainfall 0.00 in
Snow Depth Not available.
UV 0 out of 12
Pollen .80 out of 12
Air Quality Not available.
Flu Activity Sporadic
METAR KLWS 250656Z AUTO 10004KT 10SM CLR 10/09 A2990 RMK AO2 SLP125 T01000089

More Conditions Fewer Conditions

10-Day Weather Forecast

Almanac

Astronomy

Oct. 25, 2014 Rise Set
Actual Time 7:19 AM PDT 5:44 PM PDT
Civil Twilight 6:48 AM PDT 6:15 PM PDT
Nautical Twilight 6:13 AM PDT 6:50 PM PDT
Astronomical Twilight 5:38 AM PDT 7:25 PM PDT
Moon 9:07 AM PDT 7:06 PM PDT
Length of Visible Light 11h 26m
Length of Day
10h 25m
Tomorrow will be 3m 1s shorter.
New Moon, 2% of the Moon is Illuminated
Today
New Moon
Oct 30
First Quarter
Nov 6
Full
Nov 14
Last Quarter
Nov 22
New

Community

WunderPhotos

Upload Photos

1,764,789 photos uploaded!

Nearby

Snow Depth

Station Depth Elevation
Spruce Springs 1 in 5700 ft
Quartz Peak 1 in 4700 ft
Trough 1 in 5300 ft
Bunchgrass Meadow 0 in 5000 ft
Grouse Camp 0 in 5380 ft

Earthquake Activity

City Distance Mag. Time & Date
No recent earthquake activity has been reported nearby.
Minimum magnitude displayed is 2.5.

Coastal Water Temperatures

Place Temperature
No Stations Reporting

Nearby Weather Stations